createdAt,value
2019-05-25T00:01:48.388Z,99.70
2019-05-25T00:04:18.592Z,99.70
2019-05-25T00:06:48.841Z,99.70
2019-05-25T00:09:19.205Z,99.50
2019-05-25T00:11:49.517Z,99.50
2019-05-25T00:14:19.718Z,99.60
2019-05-25T00:16:50.039Z,99.70
2019-05-25T00:19:20.317Z,99.90
2019-05-25T00:21:50.774Z,99.90
2019-05-25T00:24:21.095Z,99.90
2019-05-25T00:26:51.410Z,99.90
2019-05-25T00:29:21.756Z,99.90
2019-05-25T00:31:52.093Z,99.90
2019-05-25T00:34:22.334Z,99.90
2019-05-25T00:36:52.641Z,99.90
2019-05-25T00:39:22.949Z,99.90
2019-05-25T00:41:53.354Z,99.90
2019-05-25T00:44:23.612Z,99.90
2019-05-25T00:46:53.904Z,99.90
2019-05-25T00:49:26.241Z,99.90
2019-05-25T00:51:56.580Z,99.90
2019-05-25T00:54:28.173Z,99.90
2019-05-25T00:56:58.626Z,99.90
2019-05-25T00:59:28.836Z,99.90
2019-05-25T01:01:59.162Z,99.90
2019-05-25T01:04:29.482Z,99.90
2019-05-25T01:06:59.776Z,99.90
2019-05-25T01:09:30.103Z,99.90
2019-05-25T01:12:00.583Z,99.90
2019-05-25T01:14:30.864Z,99.90
2019-05-25T01:17:01.146Z,99.90
2019-05-25T01:19:31.577Z,99.90
2019-05-25T01:22:01.856Z,99.90
2019-05-25T01:24:43.811Z,99.90
2019-05-25T01:27:04.081Z,99.90
2019-05-25T01:29:34.405Z,99.90
2019-05-25T01:32:04.738Z,99.90
2019-05-25T01:34:35.015Z,99.90
2019-05-25T01:37:05.316Z,99.90
2019-05-25T01:39:35.514Z,99.90
2019-05-25T01:42:05.726Z,99.90
2019-05-25T01:44:36.081Z,99.90
2019-05-25T01:47:06.305Z,99.90
2019-05-25T01:49:36.550Z,99.90
2019-05-25T01:52:07.035Z,99.90
2019-05-25T01:54:37.385Z,99.90
2019-05-25T01:57:07.622Z,99.90
2019-05-25T01:59:37.944Z,99.90
2019-05-25T02:02:08.230Z,99.90
2019-05-25T02:04:38.521Z,99.90
2019-05-25T02:07:08.832Z,99.90
2019-05-25T02:09:39.026Z,99.90
2019-05-25T02:12:09.261Z,99.90
2019-05-25T02:14:39.459Z,99.90
2019-05-25T02:17:09.729Z,99.90
2019-05-25T02:19:40.046Z,99.90
2019-05-25T02:22:10.221Z,99.90
2019-05-25T02:24:40.448Z,99.90
2019-05-25T02:27:10.683Z,99.90
2019-05-25T02:29:40.933Z,99.90
2019-05-25T02:32:11.189Z,99.90
2019-05-25T02:34:41.430Z,99.90
2019-05-25T02:37:11.718Z,99.90
2019-05-25T02:39:42.014Z,99.90
2019-05-25T02:42:12.225Z,99.90
2019-05-25T02:44:42.517Z,99.90
2019-05-25T02:47:12.853Z,99.90
2019-05-25T02:49:43.125Z,99.90
2019-05-25T02:52:13.429Z,99.90
2019-05-25T02:54:43.806Z,99.90
2019-05-25T02:57:14.062Z,99.90
2019-05-25T02:59:44.375Z,99.90
2019-05-25T03:02:14.588Z,99.90
2019-05-25T03:04:44.793Z,99.90
2019-05-25T03:07:15.159Z,99.90
2019-05-25T03:09:47.579Z,99.90
2019-05-25T03:12:18.257Z,99.90
2019-05-25T03:14:48.571Z,99.90
2019-05-25T03:17:18.869Z,99.90
2019-05-25T03:19:49.181Z,99.90
2019-05-25T03:22:19.461Z,99.90
2019-05-25T03:24:49.770Z,99.90
2019-05-25T03:27:20.080Z,99.90
2019-05-25T03:29:50.393Z,99.90
2019-05-25T03:32:20.690Z,99.90
2019-05-25T03:34:50.957Z,99.90
2019-05-25T03:37:21.228Z,99.90
2019-05-25T03:39:51.519Z,99.90
2019-05-25T03:42:21.804Z,99.90
2019-05-25T03:44:52.130Z,99.90
2019-05-25T03:47:22.325Z,99.90
2019-05-25T03:49:52.724Z,99.90
2019-05-25T03:52:22.912Z,99.90
2019-05-25T03:54:53.229Z,99.90
2019-05-25T03:57:23.503Z,99.90
2019-05-25T03:59:53.809Z,99.90
2019-05-25T04:02:24.097Z,99.90
2019-05-25T04:04:54.486Z,99.90
2019-05-25T04:07:24.701Z,99.90
2019-05-25T04:09:55.051Z,99.90
2019-05-25T04:12:25.341Z,99.90
2019-05-25T04:14:55.656Z,99.90
2019-05-25T04:17:25.943Z,99.90
2019-05-25T04:19:56.237Z,99.90
2019-05-25T04:22:26.637Z,99.90
2019-05-25T04:24:56.910Z,99.90
2019-05-25T04:27:27.261Z,99.90
2019-05-25T04:29:57.570Z,99.90
2019-05-25T04:32:27.915Z,99.90
2019-05-25T04:34:58.235Z,99.90
2019-05-25T04:37:28.585Z,99.90
2019-05-25T04:39:58.878Z,99.90
2019-05-25T04:42:29.200Z,99.90
2019-05-25T04:44:59.515Z,99.90
2019-05-25T04:47:29.713Z,99.90
2019-05-25T04:49:59.952Z,99.90
2019-05-25T04:52:30.298Z,99.90
2019-05-25T04:55:00.611Z,99.90
2019-05-25T04:57:30.885Z,99.90
2019-05-25T05:00:01.228Z,99.90
2019-05-25T05:02:31.450Z,99.90
2019-05-25T05:05:01.761Z,99.90
2019-05-25T05:07:32.109Z,99.90
2019-05-25T05:10:03.391Z,99.90
2019-05-25T05:12:33.862Z,99.90
2019-05-25T05:15:04.811Z,99.90
2019-05-25T05:17:35.012Z,99.90
2019-05-25T05:20:06.767Z,99.90
2019-05-25T05:22:36.985Z,99.90
2019-05-25T05:25:08.528Z,99.90
2019-05-25T05:27:39.443Z,99.90
2019-05-25T05:30:09.837Z,99.90
2019-05-25T05:32:40.103Z,99.90
2019-05-25T05:35:10.708Z,99.90
2019-05-25T05:37:42.185Z,99.90
2019-05-25T05:40:13.197Z,99.90
2019-05-25T05:42:45.480Z,99.90
2019-05-25T05:45:16.013Z,99.90
2019-05-25T05:47:48.221Z,99.90
2019-05-25T05:50:18.575Z,99.90
2019-05-25T05:52:50.907Z,99.90
2019-05-25T05:55:24.907Z,99.90
2019-05-25T05:57:55.150Z,99.90
2019-05-25T06:00:25.595Z,99.90
2019-05-25T06:02:55.854Z,99.90
2019-05-25T06:05:26.055Z,99.90
2019-05-25T06:07:56.440Z,99.90
2019-05-25T06:10:26.649Z,99.90
2019-05-25T06:12:56.999Z,99.90
2019-05-25T06:15:27.244Z,99.90
2019-05-25T06:17:57.562Z,99.90
2019-05-25T06:20:27.831Z,99.90
2019-05-25T06:22:58.167Z,99.90
2019-05-25T06:25:28.439Z,99.10
2019-05-25T06:27:58.642Z,98.70
2019-05-25T06:30:29.046Z,98.00
2019-05-25T06:32:59.432Z,97.40
2019-05-25T06:35:29.622Z,96.20
2019-05-25T06:37:59.972Z,95.00
2019-05-25T06:40:30.263Z,94.90
2019-05-25T06:43:00.626Z,94.60
2019-05-25T06:45:30.958Z,94.00
2019-05-25T06:48:01.237Z,93.10
2019-05-25T06:50:31.547Z,92.60
2019-05-25T06:53:01.830Z,92.00
2019-05-25T06:55:32.122Z,91.20
2019-05-25T06:58:02.611Z,91.10
2019-05-25T07:00:33.019Z,91.60
2019-05-25T07:03:04.524Z,91.40
2019-05-25T07:05:36.007Z,91.50
2019-05-25T07:08:07.017Z,90.90
2019-05-25T07:10:37.776Z,90.60
2019-05-25T07:13:08.163Z,90.60
2019-05-25T07:15:38.472Z,90.40
2019-05-25T07:18:08.740Z,90.20
2019-05-25T07:20:45.062Z,89.70
2019-05-25T07:23:15.145Z,89.60
2019-05-25T07:25:45.363Z,90.00
2019-05-25T07:28:15.566Z,90.20
2019-05-25T07:30:46.724Z,89.30
2019-05-25T07:33:17.072Z,88.00
2019-05-25T07:35:47.322Z,86.80
2019-05-25T07:38:17.524Z,85.90
2019-05-25T07:40:47.855Z,84.00
2019-05-25T07:43:18.195Z,84.20
2019-05-25T07:45:48.484Z,84.30
2019-05-25T07:48:18.752Z,83.50
2019-05-25T07:50:48.989Z,83.90
2019-05-25T07:53:19.329Z,85.70
2019-05-25T07:55:49.640Z,87.00
2019-05-25T07:58:19.947Z,87.40
2019-05-25T08:00:50.285Z,87.80
2019-05-25T08:03:20.581Z,89.10
2019-05-25T08:05:50.921Z,88.60
2019-05-25T08:08:21.281Z,87.60
2019-05-25T08:10:51.597Z,86.70
2019-05-25T08:13:21.841Z,84.70
2019-05-25T08:15:52.088Z,83.30
2019-05-25T08:18:22.372Z,82.70
2019-05-25T08:20:52.651Z,82.40
2019-05-25T08:23:22.951Z,82.50
2019-05-25T08:25:53.269Z,83.30
2019-05-25T08:28:32.368Z,82.30
2019-05-25T08:30:55.577Z,81.30
2019-05-25T08:33:25.762Z,81.70
2019-05-25T08:35:56.023Z,82.80
2019-05-25T08:38:26.525Z,83.60
2019-05-25T08:40:56.872Z,84.50
2019-05-25T08:43:27.206Z,85.10
2019-05-25T08:45:57.520Z,87.00
2019-05-25T08:48:27.762Z,87.30
2019-05-25T08:50:59.717Z,87.50
2019-05-25T08:53:40.712Z,87.50
2019-05-25T08:56:02.203Z,89.10
2019-05-25T08:58:47.292Z,89.70
2019-05-25T09:01:04.495Z,90.10
2019-05-25T09:03:34.786Z,90.40
2019-05-25T09:06:05.238Z,90.40
2019-05-25T09:08:35.575Z,90.50
2019-05-25T09:11:05.818Z,90.40
2019-05-25T09:13:36.253Z,90.30
2019-05-25T09:16:06.568Z,90.60
2019-05-25T09:18:40.010Z,90.80
2019-05-25T09:21:10.336Z,90.60
2019-05-25T09:23:40.522Z,90.80
2019-05-25T09:26:13.339Z,90.80
2019-05-25T09:28:42.834Z,90.90
2019-05-25T09:31:13.136Z,91.00
2019-05-25T09:33:43.369Z,90.90
2019-05-25T09:36:13.641Z,91.50
2019-05-25T09:38:43.927Z,91.50
2019-05-25T09:41:14.279Z,91.50
2019-05-25T09:43:44.477Z,91.40
2019-05-25T09:46:14.760Z,91.40
2019-05-25T09:48:45.079Z,91.10
2019-05-25T09:51:15.969Z,90.90
2019-05-25T09:53:46.404Z,90.90
2019-05-25T09:56:16.799Z,90.50
2019-05-25T09:58:47.054Z,90.40
2019-05-25T10:01:17.358Z,90.40
2019-05-25T10:03:47.652Z,90.50
2019-05-25T10:06:18.085Z,90.60
2019-05-25T10:08:48.475Z,90.80
2019-05-25T10:11:18.853Z,91.10
2019-05-25T10:13:49.139Z,91.50
2019-05-25T10:16:19.577Z,92.00
2019-05-25T10:18:49.863Z,92.00
2019-05-25T10:21:20.182Z,92.00
2019-05-25T10:23:50.405Z,91.90
2019-05-25T10:26:23.006Z,91.70
2019-05-25T10:28:52.739Z,92.10
2019-05-25T10:31:23.012Z,92.50
2019-05-25T10:33:53.301Z,92.80
2019-05-25T10:36:23.639Z,92.90
2019-05-25T10:38:53.944Z,93.00
2019-05-25T10:41:24.262Z,92.40
2019-05-25T10:43:54.553Z,92.50
2019-05-25T10:46:24.885Z,92.30
2019-05-25T10:48:55.169Z,92.30
2019-05-25T10:51:25.434Z,92.00
2019-05-25T10:53:55.767Z,92.10
2019-05-25T10:56:26.142Z,92.40
2019-05-25T10:58:56.539Z,92.60
2019-05-25T11:01:26.865Z,92.70
2019-05-25T11:03:57.216Z,92.80
2019-05-25T11:06:27.612Z,93.00
2019-05-25T11:08:57.889Z,93.30
2019-05-25T11:11:28.262Z,93.50
2019-05-25T11:13:58.622Z,93.60
2019-05-25T11:16:28.935Z,94.00
2019-05-25T11:18:59.251Z,94.00
2019-05-25T11:21:29.530Z,94.20
2019-05-25T11:24:03.226Z,94.20
2019-05-25T11:26:33.609Z,94.20
2019-05-25T11:29:03.993Z,93.30
2019-05-25T11:31:34.285Z,92.60
2019-05-25T11:34:04.774Z,92.60
2019-05-25T11:36:35.130Z,92.30
2019-05-25T11:39:08.244Z,92.50
2019-05-25T11:41:38.534Z,91.60
2019-05-25T11:44:08.841Z,91.40
2019-05-25T11:46:39.158Z,91.30
2019-05-25T11:49:22.057Z,91.20
2019-05-25T11:51:41.460Z,90.90
2019-05-25T11:54:11.811Z,91.00
2019-05-25T11:56:42.217Z,90.90
2019-05-25T11:59:12.506Z,90.70
2019-05-25T12:01:42.731Z,90.40
2019-05-25T12:04:13.075Z,90.40
2019-05-25T12:06:44.176Z,90.60
2019-05-25T12:09:14.683Z,90.40
2019-05-25T12:11:45.000Z,90.40
2019-05-25T12:14:15.289Z,90.50
2019-05-25T12:16:45.594Z,90.50
2019-05-25T12:19:15.897Z,89.90
2019-05-25T12:21:46.160Z,90.20
2019-05-25T12:24:16.540Z,90.50
2019-05-25T12:26:46.937Z,90.60
2019-05-25T12:29:17.370Z,90.60
2019-05-25T12:31:47.699Z,90.50
2019-05-25T12:34:18.050Z,90.30
2019-05-25T12:36:48.374Z,90.30
2019-05-25T12:39:18.706Z,90.10
2019-05-25T12:41:49.071Z,88.20
2019-05-25T12:44:19.341Z,85.70
2019-05-25T12:46:49.728Z,86.40
2019-05-25T12:49:20.070Z,87.50
2019-05-25T12:51:50.373Z,86.70
2019-05-25T12:54:20.771Z,86.80
2019-05-25T12:56:51.103Z,87.20
2019-05-25T12:59:21.455Z,87.90
2019-05-25T13:01:51.814Z,87.70
2019-05-25T13:04:22.254Z,86.50
2019-05-25T13:06:52.664Z,85.10
2019-05-25T13:09:23.044Z,85.80
2019-05-25T13:11:53.349Z,87.50
2019-05-25T13:14:23.693Z,85.30
2019-05-25T13:16:54.029Z,85.70
2019-05-25T13:19:24.432Z,83.30
2019-05-25T13:21:54.797Z,84.20
2019-05-25T13:24:26.752Z,85.80
2019-05-25T13:26:57.201Z,86.90
2019-05-25T13:29:27.589Z,87.10
2019-05-25T13:31:57.829Z,87.60
2019-05-25T13:34:28.105Z,87.20
2019-05-25T13:37:01.547Z,86.80
2019-05-25T13:39:30.383Z,87.60
2019-05-25T13:42:00.741Z,87.70
2019-05-25T13:44:31.014Z,87.00
2019-05-25T13:47:01.267Z,88.00
2019-05-25T13:49:31.533Z,88.80
2019-05-25T13:52:01.856Z,90.00
2019-05-25T13:54:32.169Z,90.40
2019-05-25T13:57:02.448Z,90.60
2019-05-25T13:59:32.732Z,90.70
2019-05-25T14:02:02.971Z,90.40
2019-05-25T14:04:33.261Z,90.30
2019-05-25T14:07:06.297Z,90.60
2019-05-25T14:09:36.510Z,90.30
2019-05-25T14:12:06.776Z,90.30
2019-05-25T14:14:37.063Z,90.50
2019-05-25T14:17:07.344Z,90.50
2019-05-25T14:19:41.279Z,90.60
2019-05-25T14:22:09.545Z,90.40
2019-05-25T14:24:39.845Z,90.70
2019-05-25T14:27:10.119Z,91.20
2019-05-25T14:29:40.402Z,91.50
2019-05-25T14:32:10.685Z,91.80
2019-05-25T14:34:41.030Z,92.20
2019-05-25T14:37:12.044Z,94.60
2019-05-25T14:39:42.342Z,96.50
2019-05-25T14:42:12.663Z,98.20
2019-05-25T14:44:42.965Z,99.60
2019-05-25T14:47:13.267Z,99.40
2019-05-25T14:49:43.555Z,99.90
2019-05-25T14:52:13.930Z,99.90
2019-05-25T14:54:44.194Z,99.90
2019-05-25T14:57:14.922Z,99.90
2019-05-25T14:59:45.245Z,99.90
2019-05-25T15:02:15.496Z,99.90
2019-05-25T15:04:45.786Z,99.90
2019-05-25T15:07:16.126Z,99.90
2019-05-25T15:09:46.499Z,99.90
2019-05-25T15:12:16.819Z,99.90
2019-05-25T15:14:47.129Z,99.90
2019-05-25T15:17:17.358Z,99.90
2019-05-25T15:19:47.681Z,99.90
2019-05-25T15:22:18.189Z,99.90
2019-05-25T15:24:48.462Z,99.90
2019-05-25T15:27:19.129Z,99.90
2019-05-25T15:29:49.388Z,99.90
2019-05-25T15:32:20.716Z,99.90
2019-05-25T15:34:51.266Z,99.90
2019-05-25T15:37:21.567Z,99.90
2019-05-25T15:39:51.861Z,99.90
2019-05-25T15:42:22.197Z,99.90
2019-05-25T15:44:52.485Z,99.90
2019-05-25T15:47:22.769Z,99.90
2019-05-25T15:49:53.139Z,99.90
2019-05-25T15:52:23.445Z,99.90
2019-05-25T15:54:53.662Z,99.90
2019-05-25T15:57:23.935Z,99.90
2019-05-25T15:59:54.250Z,99.90
2019-05-25T16:02:36.373Z,99.90
2019-05-25T16:04:56.559Z,99.90
2019-05-25T16:07:26.822Z,99.90
2019-05-25T16:09:57.113Z,99.90
2019-05-25T16:12:27.403Z,99.90
2019-05-25T16:14:59.373Z,99.90
2019-05-25T16:17:29.605Z,99.90
2019-05-25T16:20:00.053Z,99.90
2019-05-25T16:22:30.287Z,99.90
2019-05-25T16:25:00.580Z,99.90
2019-05-25T16:27:30.837Z,99.90
2019-05-25T16:30:01.122Z,99.90
2019-05-25T16:32:31.417Z,99.90
2019-05-25T16:35:01.710Z,99.90
2019-05-25T16:37:32.218Z,99.90
2019-05-25T16:40:02.505Z,99.90
2019-05-25T16:42:32.858Z,99.90
2019-05-25T16:45:05.795Z,99.90
2019-05-25T16:47:35.198Z,99.90
2019-05-25T16:50:05.862Z,99.90
2019-05-25T16:52:36.066Z,99.90
2019-05-25T16:55:06.505Z,99.90
2019-05-25T16:57:36.828Z,99.90
2019-05-25T17:00:07.459Z,99.90
2019-05-25T17:02:37.807Z,99.90
2019-05-25T17:05:08.509Z,99.90
2019-05-25T17:07:38.737Z,99.90
2019-05-25T17:10:09.209Z,99.90
2019-05-25T17:12:39.553Z,99.90
2019-05-25T17:15:09.971Z,99.90
2019-05-25T17:17:40.278Z,99.90
2019-05-25T17:20:10.737Z,99.90
2019-05-25T17:22:41.039Z,99.90
2019-05-25T17:25:11.645Z,99.90
2019-05-25T17:27:41.923Z,99.90
2019-05-25T17:30:14.184Z,99.90
2019-05-25T17:32:44.453Z,99.90
2019-05-25T17:35:15.072Z,99.90
2019-05-25T17:37:45.394Z,99.90
2019-05-25T17:40:15.924Z,99.90
2019-05-25T17:42:46.293Z,99.90
2019-05-25T17:45:16.633Z,99.90
2019-05-25T17:47:46.935Z,99.90
2019-05-25T17:50:17.272Z,99.90
2019-05-25T17:52:47.611Z,99.90
2019-05-25T17:55:17.967Z,99.90
2019-05-25T17:57:48.274Z,99.90
2019-05-25T18:00:35.420Z,99.90
2019-05-25T18:03:06.185Z,99.90
2019-05-25T18:05:36.499Z,99.90
2019-05-25T18:08:07.080Z,99.90
2019-05-25T18:10:52.072Z,99.90
2019-05-25T18:13:09.507Z,99.90
2019-05-25T18:15:39.882Z,99.90
2019-05-25T18:18:10.278Z,99.90
2019-05-25T18:20:40.616Z,99.90
2019-05-25T18:23:10.913Z,99.90
2019-05-25T18:25:41.263Z,99.90
2019-05-25T18:28:11.782Z,99.90
2019-05-25T18:30:42.210Z,99.90
2019-05-25T18:33:12.556Z,99.90
2019-05-25T18:35:42.917Z,99.90
2019-05-25T18:38:13.199Z,99.90
2019-05-25T18:40:43.536Z,99.90
2019-05-25T18:43:13.868Z,99.90
2019-05-25T18:45:44.222Z,99.90
2019-05-25T18:48:14.499Z,99.90
2019-05-25T18:50:44.958Z,99.90
2019-05-25T18:53:15.267Z,99.90
2019-05-25T18:55:45.665Z,99.90
2019-05-25T18:58:15.973Z,99.90
2019-05-25T19:00:46.356Z,99.90
2019-05-25T19:03:16.653Z,99.90
2019-05-25T19:05:46.901Z,99.90
2019-05-25T19:08:17.230Z,99.90
2019-05-25T19:10:47.676Z,99.90
2019-05-25T19:13:17.917Z,99.90
2019-05-25T19:15:48.219Z,99.90
2019-05-25T19:18:18.556Z,99.90
2019-05-25T19:20:49.042Z,99.90
2019-05-25T19:23:19.402Z,99.90
2019-05-25T19:25:49.700Z,99.90
2019-05-25T19:28:20.004Z,99.90
2019-05-25T19:30:50.359Z,99.90
2019-05-25T19:33:20.641Z,99.90
2019-05-25T19:35:54.040Z,99.90
2019-05-25T19:38:22.994Z,99.90
2019-05-25T19:40:53.310Z,99.90
2019-05-25T19:43:23.634Z,99.90
2019-05-25T19:45:53.968Z,99.90
2019-05-25T19:48:24.204Z,99.90
2019-05-25T19:50:56.289Z,99.90
2019-05-25T19:53:26.541Z,99.90
2019-05-25T19:55:56.860Z,99.90
2019-05-25T19:58:27.251Z,99.90
2019-05-25T20:00:57.594Z,99.90
2019-05-25T20:03:27.944Z,99.90
2019-05-25T20:05:58.217Z,99.90
2019-05-25T20:08:28.498Z,99.90
2019-05-25T20:10:58.790Z,99.90
2019-05-25T20:13:29.069Z,99.90
2019-05-25T20:15:59.261Z,99.90
2019-05-25T20:18:29.564Z,99.90
2019-05-25T20:20:59.807Z,99.90
2019-05-25T20:23:30.037Z,99.90
2019-05-25T20:26:00.309Z,99.90
2019-05-25T20:28:30.608Z,99.90
2019-05-25T20:31:00.825Z,99.90
2019-05-25T20:33:34.626Z,99.90
2019-05-25T20:36:03.069Z,99.90
2019-05-25T20:38:33.442Z,99.90
2019-05-25T20:41:03.642Z,99.90
2019-05-25T20:43:33.958Z,99.90
2019-05-25T20:46:04.161Z,99.90
2019-05-25T20:48:34.449Z,99.90
2019-05-25T20:51:04.779Z,99.90
2019-05-25T20:53:35.113Z,99.90
2019-05-25T20:56:05.422Z,99.90
2019-05-25T20:58:35.676Z,99.90
2019-05-25T21:01:05.967Z,99.90
2019-05-25T21:03:36.268Z,99.90
2019-05-25T21:06:06.577Z,99.90
2019-05-25T21:08:36.896Z,99.90
2019-05-25T21:11:07.218Z,99.90
2019-05-25T21:13:37.550Z,99.90
2019-05-25T21:16:07.834Z,99.90
2019-05-25T21:18:38.141Z,99.90
2019-05-25T21:21:08.429Z,99.90
2019-05-25T21:23:38.767Z,99.90
2019-05-25T21:26:09.136Z,99.90
2019-05-25T21:28:39.355Z,99.90
2019-05-25T21:31:09.582Z,99.90
2019-05-25T21:33:39.878Z,99.90
2019-05-25T21:36:10.172Z,99.90
2019-05-25T21:38:40.517Z,99.90
2019-05-25T21:41:10.749Z,99.90
2019-05-25T21:43:41.063Z,99.90
2019-05-25T21:46:11.374Z,99.90
2019-05-25T21:48:41.839Z,99.90
2019-05-25T21:51:12.103Z,99.90
2019-05-25T21:53:42.379Z,99.90
2019-05-25T21:56:12.692Z,99.90
2019-05-25T21:58:42.920Z,99.90
2019-05-25T22:01:13.721Z,99.90
2019-05-25T22:03:43.949Z,99.90
2019-05-25T22:06:23.693Z,99.90
2019-05-25T22:08:46.157Z,99.90
2019-05-25T22:11:16.493Z,99.90
2019-05-25T22:13:46.793Z,99.90
2019-05-25T22:16:17.102Z,99.90
2019-05-25T22:18:47.413Z,99.90
2019-05-25T22:21:17.697Z,99.90
2019-05-25T22:23:47.981Z,99.90
2019-05-25T22:26:18.252Z,99.90
2019-05-25T22:28:48.536Z,99.90
2019-05-25T22:31:18.820Z,99.90
2019-05-25T22:33:49.154Z,99.90
2019-05-25T22:36:19.469Z,99.90
2019-05-25T22:38:49.760Z,99.90
2019-05-25T22:41:20.272Z,99.90
2019-05-25T22:43:50.496Z,99.90
2019-05-25T22:46:20.842Z,99.90
2019-05-25T22:48:51.223Z,99.90
2019-05-25T22:51:21.564Z,99.90
2019-05-25T22:53:51.897Z,99.90
2019-05-25T22:56:22.298Z,99.90
2019-05-25T22:58:52.605Z,99.90
2019-05-25T23:01:22.955Z,99.90
2019-05-25T23:03:53.222Z,99.90
2019-05-25T23:06:23.576Z,99.90
2019-05-25T23:08:53.841Z,99.90
2019-05-25T23:11:24.090Z,99.90
2019-05-25T23:13:54.352Z,99.90
2019-05-25T23:16:24.646Z,99.90
2019-05-25T23:18:55.049Z,99.90
2019-05-25T23:21:25.327Z,99.90
2019-05-25T23:23:55.562Z,99.90
2019-05-25T23:26:25.760Z,99.90
2019-05-25T23:28:56.025Z,99.90
2019-05-25T23:31:26.290Z,99.90
2019-05-25T23:33:56.610Z,99.90
2019-05-25T23:36:26.797Z,99.90
2019-05-25T23:38:57.058Z,99.90
2019-05-25T23:41:27.337Z,99.90
2019-05-25T23:43:59.784Z,99.90
2019-05-25T23:46:29.512Z,99.90
2019-05-25T23:48:59.680Z,99.90
2019-05-25T23:51:30.004Z,99.90
2019-05-25T23:54:00.289Z,99.90
2019-05-25T23:56:30.621Z,99.90
2019-05-25T23:59:00.931Z,99.90
